Time;durP1;ratioP1;P1;durP2;ratioP2;P2;SDS_P1;SDS_P2;PMS_P1;PMS_P2;Temp;Humidity;BMP_temperature;BMP_pressure;BME280_temperature;BME280_humidity;BME280_pressure;Samples;Min_cycle;Max_cycle;Signal;HPM_P1;HPM_P2
2023/03/25 00:00:16;;;;;;;;;;;;;;;15.91;40.36;94830.03;5051616;28;20031;-64
2023/03/25 00:02:46;;;;;;;;;;;;;;;16.06;39.72;94821.06;5051860;28;19972;-65
2023/03/25 00:05:13;;;;;;;;;;;;;;;15.92;39.80;94820.28;5052175;28;20315;-63
2023/03/25 00:07:41;;;;;;;;;;;;;;;16.13;39.03;94818.84;5051982;28;19988;-63
2023/03/25 00:10:08;;;;;;;;;;;;;;;16.04;39.27;94812.66;5052078;28;19956;-63
2023/03/25 00:12:35;;;;;;;;;;;;;;;16.04;39.20;94823.22;5051697;28;20302;-63
2023/03/25 00:15:01;;;;;;;;;;;;;;;16.17;38.84;94819.81;5052174;28;20269;-64
2023/03/25 00:17:29;;;;;;;;;;;;;;;15.96;39.80;94818.63;5051772;28;19929;-64
2023/03/25 00:19:59;;;;;;;;;;;;;;;15.47;40.67;94818.34;5052514;28;19955;-63
2023/03/25 00:22:25;;;;;;;;;;;;;;;15.27;41.23;94812.25;5051788;28;20303;-63
2023/03/25 00:24:52;;;;;;;;;;;;;;;15.72;40.44;94810.03;5052351;28;20316;-64
2023/03/25 00:27:19;;;;;;;;;;;;;;;15.61;40.45;94803.34;5051400;28;20378;-64
2023/03/25 00:29:46;;;;;;;;;;;;;;;15.93;40.43;94811.28;5052689;28;19929;-64
2023/03/25 00:32:13;;;;;;;;;;;;;;;15.34;41.04;94803.22;5051275;28;19925;-64
2023/03/25 00:34:46;;;;;;;;;;;;;;;15.11;41.88;94799.56;5052171;28;20295;-64
2023/03/25 00:37:20;;;;;;;;;;;;;;;15.63;40.84;94801.19;5050954;28;19924;-64
2023/03/25 00:39:47;;;;;;;;;;;;;;;15.15;41.38;94806.63;5051958;28;19920;-64
2023/03/25 00:42:15;;;;;;;;;;;;;;;15.31;41.16;94801.91;5033189;28;19928;-64
2023/03/25 00:44:42;;;;;;;;;;;;;;;15.33;41.61;94799.00;5033932;28;19924;-64
2023/03/25 00:47:10;;;;;;;;;;;;;;;15.52;41.07;94799.78;5050687;28;19921;-64
2023/03/25 00:49:37;;;;;;;;;;;;;;;14.44;43.24;94803.31;5040378;28;20014;-63
2023/03/25 00:52:06;;;;;;;;;;;;;;;14.51;43.31;94795.06;5051049;28;20006;-63
2023/03/25 00:54:33;;;;;;;;;;;;;;;14.90;41.99;94796.44;5051069;28;20387;-63
2023/03/25 00:56:59;;;;;;;;;;;;;;;15.22;41.33;94796.50;5050979;28;19979;-63
2023/03/25 00:59:26;;;;;;;;;;;;;;;15.22;41.55;94785.94;5051229;28;20002;-63
2023/03/25 01:01:55;;;;;;;;;;;;;;;15.48;41.35;94788.22;5050525;28;19924;-62
2023/03/25 01:04:22;;;;;;;;;;;;;;;15.57;41.07;94786.50;5036965;28;19970;-63
2023/03/25 01:06:50;;;;;;;;;;;;;;;15.65;40.51;94783.22;5050483;28;19925;-64
2023/03/25 01:09:18;;;;;;;;;;;;;;;15.64;40.65;94777.13;5051342;28;20368;-63
2023/03/25 01:11:46;;;;;;;;;;;;;;;15.25;41.19;94779.31;5047547;28;20610;-63
2023/03/25 01:14:15;;;;;;;;;;;;;;;14.16;42.64;94785.66;5049744;28;19921;-63
2023/03/25 01:16:42;;;;;;;;;;;;;;;14.11;43.72;94783.09;5050500;28;19925;-64
2023/03/25 01:19:09;;;;;;;;;;;;;;;14.56;42.49;94777.34;5050665;28;19921;-65
2023/03/25 01:21:36;;;;;;;;;;;;;;;14.63;42.05;94754.06;5050100;28;20379;-63
2023/03/25 01:24:03;;;;;;;;;;;;;;;15.11;41.41;94768.69;5050792;28;19998;-63
2023/03/25 01:26:31;;;;;;;;;;;;;;;14.92;40.78;94775.84;5050444;28;19931;-64
2023/03/25 01:28:57;;;;;;;;;;;;;;;15.08;41.23;94764.00;5050941;28;20016;-65
2023/03/25 01:31:28;;;;;;;;;;;;;;;15.06;40.60;94766.13;5050230;28;19924;-63
2023/03/25 01:33:56;;;;;;;;;;;;;;;14.46;42.32;94751.09;5050558;28;19928;-65
2023/03/25 01:36:24;;;;;;;;;;;;;;;14.85;41.57;94749.00;5050331;28;20035;-64
2023/03/25 01:38:51;;;;;;;;;;;;;;;14.78;41.77;94751.22;5049991;28;19928;-64
2023/03/25 01:41:18;;;;;;;;;;;;;;;14.63;41.15;94751.44;5049777;28;20011;-63
2023/03/25 01:44:04;;;;;;;;;;;;;;;14.54;41.51;94754.97;5050576;28;20593;-64
2023/03/25 01:46:31;;;;;;;;;;;;;;;14.82;41.79;94749.56;5049368;28;19985;-64
2023/03/25 01:49:00;;;;;;;;;;;;;;;13.28;45.17;94752.78;5050106;28;19983;-63
2023/03/25 01:51:29;;;;;;;;;;;;;;;14.26;42.99;94751.31;5050178;28;20096;-63
2023/03/25 01:53:56;;;;;;;;;;;;;;;14.72;41.58;94747.09;5050468;28;19924;-64
2023/03/25 01:56:25;;;;;;;;;;;;;;;14.90;41.48;94741.03;5049614;28;19927;-63
2023/03/25 01:58:52;;;;;;;;;;;;;;;14.88;41.25;94753.72;5032074;28;20409;-64
2023/03/25 02:01:21;;;;;;;;;;;;;;;14.96;41.14;94744.38;5048998;28;19924;-63
2023/03/25 02:03:51;;;;;;;;;;;;;;;15.01;41.09;94746.94;5050076;28;19982;-64
2023/03/25 02:06:25;;;;;;;;;;;;;;;15.04;41.03;94739.22;5037554;28;19928;-64
2023/03/25 02:08:53;;;;;;;;;;;;;;;14.93;41.07;94743.09;5037940;28;20401;-64
2023/03/25 02:11:20;;;;;;;;;;;;;;;15.03;40.52;94737.69;5031478;28;19956;-64
2023/03/25 02:13:47;;;;;;;;;;;;;;;14.90;40.85;94734.97;5048388;28;19966;-65
2023/03/25 02:16:22;;;;;;;;;;;;;;;14.98;40.80;94732.44;5049090;28;19931;-64
2023/03/25 02:18:52;;;;;;;;;;;;;;;14.98;40.75;94735.09;5050098;28;19979;-64
2023/03/25 02:21:30;;;;;;;;;;;;;;;14.84;41.56;94730.81;5048735;28;19925;-65
2023/03/25 02:24:16;;;;;;;;;;;;;;;14.64;41.78;94734.53;5031933;28;19936;-64
2023/03/25 02:26:43;;;;;;;;;;;;;;;14.38;42.34;94733.25;5031549;28;20039;-63
2023/03/25 02:29:15;;;;;;;;;;;;;;;14.15;42.24;94734.03;5049361;28;20403;-65
2023/03/25 02:31:49;;;;;;;;;;;;;;;13.67;43.07;94735.06;5049198;28;20379;-64
2023/03/25 02:34:24;;;;;;;;;;;;;;;13.74;42.92;94743.44;5031276;28;19924;-64
2023/03/25 02:37:03;;;;;;;;;;;;;;;12.79;45.53;94745.72;5048760;28;19924;-64
2023/03/25 02:39:32;;;;;;;;;;;;;;;13.38;44.16;94736.91;5038034;28;20240;-64
2023/03/25 02:42:09;;;;;;;;;;;;;;;12.40;46.58;94750.13;5049047;28;19921;-64
2023/03/25 02:44:40;;;;;;;;;;;;;;;13.02;45.24;94739.00;5031694;28;20007;-64
2023/03/25 02:47:10;;;;;;;;;;;;;;;13.42;44.09;94735.28;5031034;28;19928;-64
2023/03/25 02:49:39;;;;;;;;;;;;;;;13.39;44.01;94735.88;5049487;28;19956;-64
2023/03/25 02:52:13;;;;;;;;;;;;;;;13.54;43.46;94733.09;5048887;28;19925;-63
2023/03/25 02:54:41;;;;;;;;;;;;;;;13.83;42.97;94731.25;5048892;28;20653;-64
2023/03/25 02:57:08;;;;;;;;;;;;;;;14.02;42.52;94719.69;5030724;28;19979;-64
2023/03/25 02:59:37;;;;;;;;;;;;;;;13.98;42.85;94715.25;5031448;28;19924;-64
2023/03/25 03:02:06;;;;;;;;;;;;;;;14.23;42.22;94715.75;5039719;28;20530;-64
2023/03/25 03:04:48;;;;;;;;;;;;;;;14.19;42.64;94722.69;5031034;28;20006;-64
2023/03/25 03:07:21;;;;;;;;;;;;;;;14.17;42.55;94710.84;5036501;28;20011;-63
2023/03/25 03:10:16;;;;;;;;;;;;;;;14.09;42.92;94714.88;5034958;28;19982;-64
2023/03/25 03:12:59;;;;;;;;;;;;;;;12.17;46.79;94719.25;5040778;28;20019;-65
2023/03/25 03:15:31;;;;;;;;;;;;;;;13.27;44.56;94711.72;5049007;28;19920;-64
2023/03/25 03:18:05;;;;;;;;;;;;;;;13.70;42.88;94718.72;5048356;28;20303;-64
2023/03/25 03:20:36;;;;;;;;;;;;;;;13.59;43.18;94719.88;5048764;28;20003;-64
2023/03/25 03:23:09;;;;;;;;;;;;;;;13.70;43.00;94716.09;5048196;28;19936;-64
2023/03/25 03:25:54;;;;;;;;;;;;;;;13.86;42.79;94714.88;5028332;28;20384;-64
2023/03/25 03:28:21;;;;;;;;;;;;;;;14.08;41.86;94715.16;5047766;28;19925;-65
2023/03/25 03:30:53;;;;;;;;;;;;;;;14.03;41.91;94715.22;5047277;28;19928;-63
2023/03/25 03:33:35;;;;;;;;;;;;;;;14.06;42.26;94725.19;5049140;28;20289;-63
2023/03/25 03:36:07;;;;;;;;;;;;;;;14.29;41.63;94718.38;5052120;28;19924;-64
2023/03/25 03:38:37;;;;;;;;;;;;;;;13.64;42.71;94723.25;5052059;28;19971;-64
2023/03/25 03:41:06;;;;;;;;;;;;;;;13.87;42.82;94721.69;5052708;28;19928;-63
2023/03/25 03:43:36;;;;;;;;;;;;;;;14.08;41.64;94715.16;5052454;28;19963;-64
2023/03/25 03:46:05;;;;;;;;;;;;;;;14.05;42.03;94721.00;5051989;28;19925;-63
2023/03/25 03:48:44;;;;;;;;;;;;;;;14.02;42.54;94732.06;5052416;28;19994;-66
2023/03/25 03:51:17;;;;;;;;;;;;;;;14.13;41.77;94726.44;5051856;28;19929;-64
2023/03/25 03:53:49;;;;;;;;;;;;;;;13.90;42.45;94727.19;5053079;28;20025;-63
2023/03/25 03:56:21;;;;;;;;;;;;;;;13.96;42.63;94727.91;5051792;28;20032;-65
2023/03/25 03:58:52;;;;;;;;;;;;;;;14.03;42.45;94720.50;5052562;28;19921;-64
2023/03/25 04:01:29;;;;;;;;;;;;;;;13.60;42.78;94722.25;5051572;28;20027;-63
2023/03/25 04:03:58;;;;;;;;;;;;;;;13.24;43.60;94731.50;5052140;28;20437;-64
2023/03/25 04:06:34;;;;;;;;;;;;;;;13.29;43.52;94730.66;5051932;28;19925;-63
2023/03/25 04:09:05;;;;;;;;;;;;;;;13.33;43.32;94732.50;5052613;28;19921;-64
2023/03/25 04:11:36;;;;;;;;;;;;;;;12.99;44.50;94737.69;5051760;28;19930;-64
2023/03/25 04:14:04;;;;;;;;;;;;;;;12.83;44.64;94733.59;5052579;28;19925;-63
2023/03/25 04:16:31;;;;;;;;;;;;;;;12.96;44.76;94743.50;5051414;28;20358;-65
2023/03/25 04:19:02;;;;;;;;;;;;;;;12.73;45.14;94728.41;5051842;28;19920;-64
2023/03/25 04:21:29;;;;;;;;;;;;;;;12.64;45.89;94726.63;5051210;28;19982;-65
2023/03/25 04:24:00;;;;;;;;;;;;;;;12.60;45.67;94730.84;5051785;28;20346;-63
2023/03/25 04:26:28;;;;;;;;;;;;;;;12.67;45.41;94729.50;5050877;28;19920;-63
2023/03/25 04:28:58;;;;;;;;;;;;;;;12.83;44.94;94723.09;5046927;28;20264;-63
2023/03/25 04:31:29;;;;;;;;;;;;;;;12.77;45.04;94729.41;5049655;28;19930;-63
2023/03/25 04:33:57;;;;;;;;;;;;;;;12.79;45.50;94732.56;5051743;28;19928;-64
2023/03/25 04:36:27;;;;;;;;;;;;;;;12.95;44.79;94734.06;5051078;28;20347;-65
2023/03/25 04:38:55;;;;;;;;;;;;;;;12.80;45.20;94739.41;5051420;28;19921;-64
2023/03/25 04:41:22;;;;;;;;;;;;;;;12.74;45.18;94745.75;5051317;28;20287;-64
2023/03/25 04:43:49;;;;;;;;;;;;;;;12.41;45.92;94745.69;5051561;28;19925;-64
2023/03/25 04:46:16;;;;;;;;;;;;;;;12.59;45.28;94740.56;5050797;28;20027;-65
2023/03/25 04:48:44;;;;;;;;;;;;;;;12.91;45.11;94740.91;5038906;28;20307;-63
2023/03/25 04:51:11;;;;;;;;;;;;;;;12.99;45.96;94748.22;5050644;28;19932;-64
2023/03/25 04:53:38;;;;;;;;;;;;;;;12.98;45.17;94746.66;5051626;28;19928;-63
2023/03/25 04:56:06;;;;;;;;;;;;;;;12.65;45.41;94747.38;5051028;28;20052;-65
2023/03/25 04:58:35;;;;;;;;;;;;;;;12.78;45.71;94746.78;5051360;28;20375;-65
2023/03/25 05:01:04;;;;;;;;;;;;;;;13.02;45.58;94752.97;5050624;28;19950;-65
2023/03/25 05:03:32;;;;;;;;;;;;;;;13.15;45.26;94747.09;5050240;28;19955;-65
2023/03/25 05:05:59;;;;;;;;;;;;;;;12.79;45.52;94743.09;5047662;28;19979;-64
2023/03/25 05:08:25;;;;;;;;;;;;;;;12.78;45.44;94746.00;5050098;28;20588;-64
2023/03/25 05:10:52;;;;;;;;;;;;;;;13.06;45.03;94746.09;5049680;28;20384;-64
2023/03/25 05:13:19;;;;;;;;;;;;;;;13.50;44.15;94747.88;5049132;28;19920;-65
2023/03/25 05:15:46;;;;;;;;;;;;;;;13.70;43.68;94739.78;5049320;28;19987;-65
2023/03/25 05:18:14;;;;;;;;;;;;;;;13.91;43.24;94741.16;5049854;28;20549;-64
2023/03/25 05:20:42;;;;;;;;;;;;;;;13.87;43.88;94737.50;5049412;28;19925;-65
2023/03/25 05:23:14;;;;;;;;;;;;;;;14.06;43.08;94741.00;5049363;28;19979;-65
2023/03/25 05:25:41;;;;;;;;;;;;;;;14.08;43.13;94744.94;5048127;28;19925;-65
2023/03/25 05:28:12;;;;;;;;;;;;;;;14.14;43.32;94743.03;5047774;28;19948;-65
2023/03/25 05:30:40;;;;;;;;;;;;;;;14.28;43.09;94738.69;5049905;28;19921;-65
2023/03/25 05:33:09;;;;;;;;;;;;;;;14.27;43.72;94742.34;5049259;28;19921;-64
2023/03/25 05:35:36;;;;;;;;;;;;;;;14.29;43.47;94740.22;5049147;28;20016;-64
2023/03/25 05:38:04;;;;;;;;;;;;;;;14.45;43.58;94736.34;5048109;28;19924;-64
2023/03/25 05:40:31;;;;;;;;;;;;;;;14.43;42.65;94733.22;5048447;28;19947;-64
2023/03/25 05:42:58;;;;;;;;;;;;;;;14.34;43.66;94737.56;5048874;28;19931;-65
2023/03/25 05:45:25;;;;;;;;;;;;;;;14.64;43.15;94746.91;5049598;28;20361;-64
2023/03/25 05:47:52;;;;;;;;;;;;;;;14.79;42.10;94741.44;5048645;28;19979;-65
2023/03/25 05:50:20;;;;;;;;;;;;;;;14.75;42.68;94733.31;5048580;28;19925;-65
2023/03/25 05:52:50;;;;;;;;;;;;;;;14.76;42.58;94745.44;5048575;28;19964;-64
2023/03/25 05:55:19;;;;;;;;;;;;;;;15.00;43.01;94735.59;5048677;28;19931;-65
2023/03/25 05:57:46;;;;;;;;;;;;;;;15.19;42.31;94733.75;5047933;28;19921;-64
2023/03/25 06:00:14;;;;;;;;;;;;;;;15.27;42.75;94734.94;5028798;28;20013;-65
2023/03/25 06:02:43;;;;;;;;;;;;;;;15.42;42.04;94731.31;5048052;28;19924;-65
2023/03/25 06:05:12;;;;;;;;;;;;;;;15.45;41.66;94738.66;5048697;28;19990;-64
2023/03/25 06:07:44;;;;;;;;;;;;;;;15.62;41.69;94731.75;5039784;28;20620;-64
2023/03/25 06:10:17;;;;;;;;;;;;;;;15.60;41.86;94733.13;5048815;28;19920;-63
2023/03/25 06:12:45;;;;;;;;;;;;;;;15.79;41.95;94733.81;5041887;28;19924;-64
2023/03/25 06:15:13;;;;;;;;;;;;;;;15.83;42.24;94732.19;5036040;28;19997;-64
2023/03/25 06:17:40;;;;;;;;;;;;;;;15.85;42.15;94735.31;5048214;28;19974;-65
2023/03/25 06:20:11;;;;;;;;;;;;;;;15.92;42.25;94733.84;5048510;28;20331;-64
2023/03/25 06:22:39;;;;;;;;;;;;;;;16.03;41.97;94731.81;5047955;28;19975;-64
2023/03/25 06:25:06;;;;;;;;;;;;;;;16.08;41.62;94723.78;5048814;28;20067;-64
2023/03/25 06:27:33;;;;;;;;;;;;;;;15.95;41.87;94735.13;5048081;28;20007;-63
2023/03/25 06:30:00;;;;;;;;;;;;;;;15.88;42.22;94734.72;5048355;28;19925;-64
2023/03/25 06:32:27;;;;;;;;;;;;;;;16.09;41.11;94735.94;5047634;28;20059;-64
2023/03/25 06:34:54;;;;;;;;;;;;;;;16.10;41.79;94737.47;5048673;28;19924;-65
2023/03/25 06:37:24;;;;;;;;;;;;;;;15.97;42.01;94739.03;5047793;28;20038;-63
2023/03/25 06:39:55;;;;;;;;;;;;;;;16.07;42.54;94735.44;5038424;28;19927;-65
2023/03/25 06:42:24;;;;;;;;;;;;;;;16.12;42.58;94745.91;5029156;28;19924;-64
2023/03/25 06:45:08;;;;;;;;;;;;;;;16.17;42.68;94737.88;5063250;28;19920;-65
2023/03/25 06:47:55;;;;;;;;;;;;;;;16.18;42.09;94744.75;5045676;28;19924;-65
2023/03/25 06:50:22;;;;;;;;;;;;;;;16.07;41.82;94744.16;5047053;28;20425;-65
2023/03/25 06:52:49;;;;;;;;;;;;;;;16.18;42.00;94747.38;5047135;28;19924;-65
2023/03/25 06:55:15;;;;;;;;;;;;;;;16.08;42.47;94744.91;5047897;28;19990;-65
2023/03/25 06:57:42;;;;;;;;;;;;;;;16.24;42.80;94744.34;5047633;28;19925;-67
2023/03/25 07:00:10;;;;;;;;;;;;;;;16.31;42.45;94748.47;5048100;28;20410;-65
2023/03/25 07:02:37;;;;;;;;;;;;;;;16.52;43.82;94750.44;5047687;28;19932;-68
2023/03/25 07:05:05;;;;;;;;;;;;;;;16.59;43.19;94750.03;5048062;28;19924;-66
2023/03/25 07:07:32;;;;;;;;;;;;;;;16.82;42.16;94749.03;5028221;28;19928;-68
2023/03/25 07:09:59;;;;;;;;;;;;;;;16.95;42.26;94756.94;5013033;28;19925;-68
2023/03/25 07:12:25;;;;;;;;;;;;;;;17.05;42.02;94748.78;5042475;28;20335;-67
2023/03/25 07:14:53;;;;;;;;;;;;;;;17.02;41.10;94745.94;5047690;28;19924;-67
2023/03/25 07:17:21;;;;;;;;;;;;;;;16.94;41.28;94733.41;5047058;28;19928;-68
2023/03/25 07:19:48;;;;;;;;;;;;;;;17.13;41.27;94734.81;5047705;28;19924;-66
2023/03/25 07:22:15;;;;;;;;;;;;;;;17.14;41.47;94730.31;5046375;28;20319;-67
2023/03/25 07:24:42;;;;;;;;;;;;;;;17.42;40.99;94736.28;5047856;28;19924;-68
2023/03/25 07:27:11;;;;;;;;;;;;;;;17.43;40.35;94730.69;5047429;28;19924;-66
2023/03/25 07:29:40;;;;;;;;;;;;;;;17.52;40.18;94736.06;5030504;28;20578;-66
2023/03/25 07:32:06;;;;;;;;;;;;;;;17.58;40.83;94745.47;5041851;28;20480;-66
2023/03/25 07:34:33;;;;;;;;;;;;;;;17.77;40.12;94738.09;5047374;28;19924;-67
2023/03/25 07:37:00;;;;;;;;;;;;;;;17.92;39.96;94740.34;5028826;28;19924;-66
2023/03/25 07:39:27;;;;;;;;;;;;;;;17.91;39.79;94728.19;5047249;28;19920;-61
2023/03/25 07:41:54;;;;;;;;;;;;;;;18.00;40.58;94726.38;5040005;28;19924;-66
2023/03/25 07:44:39;;;;;;;;;;;;;;;18.18;41.74;94720.84;5047423;28;19931;-66
2023/03/25 07:47:05;;;;;;;;;;;;;;;18.37;40.28;94715.28;5046366;28;19932;-63
2023/03/25 07:49:32;;;;;;;;;;;;;;;18.54;39.79;94718.00;5047796;28;19925;-64
2023/03/25 07:51:59;;;;;;;;;;;;;;;18.13;39.08;94720.97;5045029;28;20539;-65
2023/03/25 07:54:25;;;;;;;;;;;;;;;18.32;38.35;94720.72;5047507;28;19925;-62
2023/03/25 07:56:54;;;;;;;;;;;;;;;18.69;39.23;94706.94;5046734;28;20272;-62
2023/03/25 07:59:21;;;;;;;;;;;;;;;18.95;37.85;94705.09;5047290;28;19921;-61
2023/03/25 08:01:47;;;;;;;;;;;;;;;19.13;37.38;94690.72;5039563;28;19921;-64
2023/03/25 08:04:14;;;;;;;;;;;;;;;19.29;38.11;94704.31;5042715;28;20035;-65
2023/03/25 08:06:41;;;;;;;;;;;;;;;19.44;37.34;94695.88;5045117;28;19921;-68
2023/03/25 08:09:08;;;;;;;;;;;;;;;19.39;36.62;94688.09;5047594;28;19921;-64
2023/03/25 08:11:34;;;;;;;;;;;;;;;19.17;36.71;94694.34;5040332;28;19928;-65
2023/03/25 08:14:01;;;;;;;;;;;;;;;19.14;38.23;94686.97;5046564;28;19960;-66
2023/03/25 08:16:28;;;;;;;;;;;;;;;19.52;37.50;94689.00;5045501;28;19932;-65
2023/03/25 08:18:54;;;;;;;;;;;;;;;19.56;37.00;94677.41;5046532;28;19931;-65
2023/03/25 08:21:23;;;;;;;;;;;;;;;19.88;36.63;94673.41;5047734;28;19924;-65
2023/03/25 08:23:53;;;;;;;;;;;;;;;19.96;36.42;94675.28;5043100;28;19924;-66
2023/03/25 08:26:20;;;;;;;;;;;;;;;20.49;35.80;94672.06;5048430;28;20019;-66
2023/03/25 08:28:47;;;;;;;;;;;;;;;20.80;35.34;94667.94;5044384;28;19932;-64
2023/03/25 08:31:14;;;;;;;;;;;;;;;21.10;34.85;94661.47;5036803;28;19933;-63
2023/03/25 08:33:41;;;;;;;;;;;;;;;20.93;34.89;94663.44;5041652;28;20615;-65
2023/03/25 08:36:12;;;;;;;;;;;;;;;20.91;34.83;94673.69;5050361;28;19921;-65
2023/03/25 08:38:40;;;;;;;;;;;;;;;20.33;34.32;94663.09;5050381;28;20462;-63
2023/03/25 08:41:07;;;;;;;;;;;;;;;20.52;34.14;94672.22;5050164;28;20012;-67
2023/03/25 08:43:34;;;;;;;;;;;;;;;20.62;35.97;94660.41;5050385;28;19933;-65
2023/03/25 08:46:00;;;;;;;;;;;;;;;21.06;35.33;94649.91;5050210;28;20425;-65
2023/03/25 08:48:27;;;;;;;;;;;;;;;21.33;34.87;94643.22;5049019;28;19925;-65
2023/03/25 08:50:54;;;;;;;;;;;;;;;21.29;35.30;94636.22;5050289;28;20377;-68
2023/03/25 08:53:21;;;;;;;;;;;;;;;21.41;34.83;94649.59;5050247;28;19925;-66
2023/03/25 08:55:54;;;;;;;;;;;;;;;21.70;34.50;94649.44;5049682;28;19920;-65
2023/03/25 08:58:21;;;;;;;;;;;;;;;21.73;34.54;94649.56;5037667;28;19925;-67
2023/03/25 09:00:53;;;;;;;;;;;;;;;21.71;34.83;94643.00;5050154;28;19921;-66
2023/03/25 09:03:23;;;;;;;;;;;;;;;21.70;34.27;94636.09;5042158;28;19936;-66
2023/03/25 09:05:50;;;;;;;;;;;;;;;21.69;34.55;94631.91;5048437;28;19921;-65
2023/03/25 09:08:17;;;;;;;;;;;;;;;21.86;34.97;94629.06;5047885;28;19954;-66
2023/03/25 09:10:44;;;;;;;;;;;;;;;21.90;34.08;94624.59;5049669;28;19956;-62
2023/03/25 09:13:10;;;;;;;;;;;;;;;22.24;33.95;94618.84;5037072;28;19925;-64
2023/03/25 09:15:37;;;;;;;;;;;;;;;22.53;33.59;94615.13;5050076;28;20027;-64
2023/03/25 09:18:04;;;;;;;;;;;;;;;22.52;33.50;94613.56;5048832;28;19924;-65
2023/03/25 09:20:32;;;;;;;;;;;;;;;22.75;32.59;94604.00;5049333;28;20308;-66
2023/03/25 09:22:59;;;;;;;;;;;;;;;23.10;32.31;94602.31;5043516;28;20371;-64
2023/03/25 09:25:26;;;;;;;;;;;;;;;23.40;32.30;94592.03;5050017;28;19968;-62
2023/03/25 09:27:52;;;;;;;;;;;;;;;23.71;31.49;94581.38;5047029;28;19925;-66
2023/03/25 09:30:20;;;;;;;;;;;;;;;23.91;31.60;94583.00;5049649;28;19925;-64
2023/03/25 09:32:47;;;;;;;;;;;;;;;23.79;31.49;94585.78;5047909;28;19920;-66
2023/03/25 09:35:14;;;;;;;;;;;;;;;23.56;32.06;94587.50;5049703;28;19928;-66
2023/03/25 09:37:41;;;;;;;;;;;;;;;23.50;32.81;94583.53;5049106;28;19955;-67
2023/03/25 09:40:10;;;;;;;;;;;;;;;23.70;31.26;94577.16;5048958;28;19920;-63
2023/03/25 09:43:07;;;;;;;;;;;;;;;23.71;30.67;94576.03;5047588;28;19931;-62
2023/03/25 09:45:36;;;;;;;;;;;;;;;24.01;30.44;94577.94;4994648;28;19944;-64
2023/03/25 09:48:03;;;;;;;;;;;;;;;24.36;30.76;94577.97;5048139;28;19924;-67
2023/03/25 09:50:32;;;;;;;;;;;;;;;24.47;28.99;94567.50;5048642;28;19943;-64
2023/03/25 09:53:11;;;;;;;;;;;;;;;24.39;30.03;94561.22;5048065;28;20023;-65
2023/03/25 09:55:40;;;;;;;;;;;;;;;24.37;30.41;94562.69;5049071;28;20015;-64
2023/03/25 09:58:29;;;;;;;;;;;;;;;24.14;29.52;94562.59;5048485;28;19960;-65
2023/03/25 10:01:17;;;;;;;;;;;;;;;23.82;29.97;94556.44;5020277;28;20353;-61
2023/03/25 10:04:13;;;;;;;;;;;;;;;24.15;29.57;94556.09;5045567;28;19952;-65
2023/03/25 10:06:45;;;;;;;;;;;;;;;24.44;30.45;94552.13;5010020;28;20019;-62
2023/03/25 10:09:11;;;;;;;;;;;;;;;24.57;29.23;94554.34;5048070;28;19925;-62
2023/03/25 10:11:44;;;;;;;;;;;;;;;24.47;29.20;94552.19;5048056;28;19986;-63
2023/03/25 10:14:16;;;;;;;;;;;;;;;24.51;29.64;94547.69;5040315;28;19974;-60
2023/03/25 10:17:01;;;;;;;;;;;;;;;24.30;27.66;94541.91;5048411;28;20284;-62
2023/03/25 10:19:49;;;;;;;;;;;;;;;24.17;29.72;94537.00;5049353;28;20326;-66
2023/03/25 10:22:20;;;;;;;;;;;;;;;24.11;28.27;94539.16;5047297;28;20319;-64
2023/03/25 10:24:50;;;;;;;;;;;;;;;24.12;27.14;94532.69;5048608;28;20019;-63
2023/03/25 10:27:20;;;;;;;;;;;;;;;24.01;26.83;94518.31;5045510;28;19936;-62
2023/03/25 10:29:50;;;;;;;;;;;;;;;24.12;25.30;94522.00;5040631;28;20451;-66
2023/03/25 10:32:20;;;;;;;;;;;;;;;24.52;26.02;94505.63;5047073;28;19929;-64
2023/03/25 10:34:49;;;;;;;;;;;;;;;24.98;26.70;94502.72;5047439;28;19928;-62
2023/03/25 10:37:24;;;;;;;;;;;;;;;24.86;25.44;94500.22;5047361;28;19982;-63
2023/03/25 10:39:52;;;;;;;;;;;;;;;24.68;24.57;94503.66;5047821;28;19921;-65
2023/03/25 10:42:29;;;;;;;;;;;;;;;24.49;24.11;94504.41;5044448;28;20046;-64
2023/03/25 10:44:56;;;;;;;;;;;;;;;24.91;25.53;94497.25;5042541;28;19998;-64
2023/03/25 10:47:25;;;;;;;;;;;;;;;25.13;25.59;94493.03;5044528;28;20043;-67
2023/03/25 10:49:53;;;;;;;;;;;;;;;24.59;24.07;94487.78;5043577;28;20414;-65
2023/03/25 10:52:20;;;;;;;;;;;;;;;25.49;25.91;94478.38;5046143;28;19924;-65
2023/03/25 10:54:52;;;;;;;;;;;;;;;25.51;24.86;94478.78;5045235;28;20023;-65
2023/03/25 10:57:21;;;;;;;;;;;;;;;25.27;24.60;94476.44;5046328;28;19959;-66
2023/03/25 11:00:01;;;;;;;;;;;;;;;25.50;24.91;94474.53;5047053;28;19921;-65
2023/03/25 11:02:29;;;;;;;;;;;;;;;25.28;25.05;94467.25;5046265;28;19975;-66
2023/03/25 11:05:00;;;;;;;;;;;;;;;25.53;25.06;94465.78;5047331;28;19925;-65
2023/03/25 11:07:35;;;;;;;;;;;;;;;25.37;24.85;94459.72;5038177;28;19929;-66
2023/03/25 11:10:18;;;;;;;;;;;;;;;25.07;24.85;94460.38;5047264;28;19925;-66
2023/03/25 11:12:48;;;;;;;;;;;;;;;25.82;24.58;94448.97;5042325;28;19921;-67
2023/03/25 11:15:16;;;;;;;;;;;;;;;26.33;25.16;94449.31;5035281;28;19924;-65
2023/03/25 11:17:44;;;;;;;;;;;;;;;26.50;25.34;94446.06;5045976;28;19929;-67
2023/03/25 11:20:24;;;;;;;;;;;;;;;26.26;24.22;94436.56;5047386;28;19924;-66
2023/03/25 11:22:52;;;;;;;;;;;;;;;26.67;24.40;94435.53;5037873;28;20007;-65
2023/03/25 11:25:29;;;;;;;;;;;;;;;26.43;24.08;94427.94;5047133;28;20278;-65
2023/03/25 11:27:57;;;;;;;;;;;;;;;26.47;24.29;94419.94;5029960;28;19959;-69
2023/03/25 11:30:25;;;;;;;;;;;;;;;27.02;25.17;94425.13;5041766;28;19924;-65
2023/03/25 11:32:56;;;;;;;;;;;;;;;26.56;23.74;94423.09;5042075;28;19925;-63
2023/03/25 11:35:24;;;;;;;;;;;;;;;26.58;23.79;94415.44;5043473;28;19935;-64
2023/03/25 11:37:55;;;;;;;;;;;;;;;26.94;23.26;94407.41;5046396;28;19964;-63
2023/03/25 11:40:22;;;;;;;;;;;;;;;26.54;23.36;94401.97;5047470;28;19925;-64
2023/03/25 11:42:53;;;;;;;;;;;;;;;27.17;22.91;94398.38;5043551;28;20015;-66
2023/03/25 11:45:22;;;;;;;;;;;;;;;26.92;23.68;94393.56;5040059;28;19983;-63
2023/03/25 11:47:50;;;;;;;;;;;;;;;26.67;23.57;94397.88;5043927;28;19928;-66
2023/03/25 11:50:21;;;;;;;;;;;;;;;26.62;23.42;94400.88;5041022;28;20671;-67
2023/03/25 11:52:51;;;;;;;;;;;;;;;26.21;23.29;94395.81;5044644;28;20381;-64
2023/03/25 11:55:21;;;;;;;;;;;;;;;26.34;23.62;94379.09;5042588;28;20662;-65
2023/03/25 11:57:49;;;;;;;;;;;;;;;26.44;23.23;94381.13;5041377;28;19925;-64
2023/03/25 12:00:22;;;;;;;;;;;;;;;26.43;23.59;94382.28;5040472;28;19982;-67
2023/03/25 12:02:57;;;;;;;;;;;;;;;25.78;23.32;94383.75;5049168;28;20280;-66
2023/03/25 12:05:25;;;;;;;;;;;;;;;25.82;23.61;94379.19;5050885;28;19925;-64
2023/03/25 12:07:59;;;;;;;;;;;;;;;26.11;23.37;94367.72;5048752;28;19978;-65
2023/03/25 12:10:35;;;;;;;;;;;;;;;25.12;23.86;94367.38;5039418;28;20304;-64
2023/03/25 12:13:06;;;;;;;;;;;;;;;25.32;23.87;94366.16;5050163;28;19921;-64
2023/03/25 12:15:45;;;;;;;;;;;;;;;25.54;24.44;94362.69;5052295;28;20016;-65
2023/03/25 12:18:28;;;;;;;;;;;;;;;25.56;23.91;94360.44;5050757;28;19921;-64
2023/03/25 12:21:06;;;;;;;;;;;;;;;26.12;23.97;94355.81;5051064;28;20352;-62
2023/03/25 12:23:42;;;;;;;;;;;;;;;25.59;23.85;94365.06;5044808;28;20395;-65
2023/03/25 12:26:12;;;;;;;;;;;;;;;25.51;23.72;94368.78;5048821;28;19921;-65
2023/03/25 12:28:59;;;;;;;;;;;;;;;25.37;23.97;94365.84;5043776;28;19931;-66
2023/03/25 12:31:26;;;;;;;;;;;;;;;25.56;23.42;94373.84;5039772;28;19998;-64
2023/03/25 12:34:13;;;;;;;;;;;;;;;25.40;23.45;94365.19;5051050;28;20015;-65
2023/03/25 12:36:58;;;;;;;;;;;;;;;25.46;23.98;94361.81;5040853;28;20019;-62
2023/03/25 12:39:48;;;;;;;;;;;;;;;25.21;23.63;94370.59;5045591;28;20359;-63
2023/03/25 12:42:15;;;;;;;;;;;;;;;25.40;24.67;94370.53;5041288;28;19924;-64
2023/03/25 12:45:00;;;;;;;;;;;;;;;24.81;23.17;94379.13;5046632;28;20478;-65
2023/03/25 12:47:34;;;;;;;;;;;;;;;24.74;23.97;94374.41;5037672;28;19924;-64
2023/03/25 12:50:10;;;;;;;;;;;;;;;24.79;24.28;94368.00;5047788;28;19970;-64
2023/03/25 12:52:47;;;;;;;;;;;;;;;24.89;23.71;94368.16;5050750;28;19928;-65
2023/03/25 12:55:23;;;;;;;;;;;;;;;25.03;23.67;94364.97;5038234;28;19924;-64
2023/03/25 12:58:00;;;;;;;;;;;;;;;25.41;23.93;94361.34;5049893;28;20275;-67
2023/03/25 13:00:36;;;;;;;;;;;;;;;25.10;23.61;94365.06;5044200;28;20391;-64
2023/03/25 13:03:19;;;;;;;;;;;;;;;25.09;23.83;94356.25;5049991;28;19924;-64